Grangeburg, Alabama
Current Conditions -  °F | °C
As of 8:53 PM on Friday 19 Dec 2014 (Local Time) from KMAI Reporting Station
Moderate Rain Moderate Rain  
Wind Chill: 52°   Ceiling: 5500
Heat Index: 52°   Visibility: 6mi
Dew Point: 50°   Wind: 0mph
Humidity: 93%   Direction: NA
Pressure: 30.15"   Gusts: NA
Location:  31.0771°N, 85.1158°W
Report Text: KMAI 200253Z AUTO 00000KT 6SM RA BR OVC055 11/10 A3015 RMK AO2 RAB0156 SLP208 P0003 60003 T01110100 53002 $
Loading
Personal Weather Stations






























Interactive Weather Map New forecast layout! Learn more

10-Day Weather Forecast

Advertisements
Track Severe Weather on mobile